createdAt,value
2022-10-01T00:01:01.419Z,99315.19
2022-10-01T00:03:29.345Z,99318.63
2022-10-01T00:06:00.684Z,99319.53
2022-10-01T00:08:28.765Z,99328.13
2022-10-01T00:10:55.708Z,99334.16
2022-10-01T00:13:23.189Z,99325.53
2022-10-01T00:15:49.791Z,99324.72
2022-10-01T00:18:16.392Z,99318.66
2022-10-01T00:20:43.627Z,99327.28
2022-10-01T00:23:11.548Z,99325.56
2022-10-01T00:25:38.564Z,99323.81
2022-10-01T00:28:05.517Z,99322.13
2022-10-01T00:30:32.360Z,99321.25
2022-10-01T00:32:58.920Z,99316.09
2022-10-01T00:35:25.673Z,99312.66
2022-10-01T00:37:52.512Z,99306.69
2022-10-01T00:40:23.810Z,99314.41
2022-10-01T00:42:50.619Z,99315.25
2022-10-01T00:45:17.253Z,99322.19
2022-10-01T00:47:50.509Z,99317.00
2022-10-01T00:50:29.103Z,99323.91
2022-10-01T00:53:01.344Z,99309.31
2022-10-01T00:55:33.954Z,99316.25
2022-10-01T00:58:00.997Z,99311.09
2022-10-01T01:00:27.650Z,99314.53
2022-10-01T01:02:54.983Z,99305.97
2022-10-01T01:05:22.161Z,99306.84
2022-10-01T01:07:52.776Z,99298.28
2022-10-01T01:11:02.399Z,99302.56
2022-10-01T01:13:42.809Z,99296.59
2022-10-01T01:16:26.769Z,99289.72
2022-10-01T01:19:04.644Z,99302.63
2022-10-01T01:21:51.932Z,99306.09
2022-10-01T01:24:37.477Z,99307.84
2022-10-01T01:27:24.285Z,99312.13
2022-10-01T01:29:54.088Z,99320.72
2022-10-01T01:32:30.811Z,99315.56
2022-10-01T01:35:02.304Z,99313.88
2022-10-01T01:37:35.613Z,99324.19
2022-10-01T01:40:05.216Z,99313.88
2022-10-01T01:42:37.267Z,99306.13
2022-10-01T01:45:09.932Z,99319.91
2022-10-01T01:47:42.163Z,99314.72
2022-10-01T01:50:10.910Z,99314.75
2022-10-01T01:52:38.406Z,99322.50
2022-10-01T01:55:08.601Z,99324.22
2022-10-01T01:57:42.074Z,99320.78
2022-10-01T02:00:09.954Z,99323.38
2022-10-01T02:02:39.345Z,99325.09
2022-10-01T02:05:12.680Z,99324.25
2022-10-01T02:08:12.219Z,99316.50
2022-10-01T02:10:50.899Z,99322.53
2022-10-01T02:13:38.992Z,99330.28
2022-10-01T02:16:34.936Z,99330.28
2022-10-01T02:19:14.065Z,99324.28
2022-10-01T02:21:49.748Z,99321.72
2022-10-01T02:24:31.437Z,99317.41
2022-10-01T02:27:01.552Z,99324.28
2022-10-01T02:29:29.540Z,99326.00
2022-10-01T02:31:57.321Z,99336.31
2022-10-01T02:34:29.037Z,99318.31
2022-10-01T02:36:58.878Z,99320.88
2022-10-01T02:39:29.681Z,99320.03
2022-10-01T02:41:59.287Z,99310.56
2022-10-01T02:44:38.122Z,99320.88
2022-10-01T02:47:08.874Z,99314.84
2022-10-01T02:49:37.389Z,99326.88
2022-10-01T02:52:22.642Z,99318.31
2022-10-01T02:54:54.953Z,99325.16
2022-10-01T02:57:24.510Z,99322.59
2022-10-01T02:59:51.816Z,99332.06
2022-10-01T03:02:19.529Z,99338.94
2022-10-01T03:04:48.095Z,99339.78
2022-10-01T03:07:15.939Z,99344.09
2022-10-01T03:09:42.542Z,99351.84
2022-10-01T03:12:10.755Z,99344.09
2022-10-01T03:14:39.231Z,99347.53
2022-10-01T03:17:08.904Z,99356.13
2022-10-01T03:19:35.573Z,99353.56
2022-10-01T03:22:02.224Z,99350.09
2022-10-01T03:24:29.295Z,99355.28
2022-10-01T03:26:56.966Z,99355.28
2022-10-01T03:29:24.689Z,99348.38
2022-10-01T03:31:52.356Z,99350.94
2022-10-01T03:34:19.491Z,99356.97
2022-10-01T03:36:46.845Z,99359.56
2022-10-01T03:39:13.638Z,99356.97
2022-10-01T03:41:40.227Z,99355.28
2022-10-01T03:44:06.880Z,99350.97
2022-10-01T03:46:33.502Z,99344.97
2022-10-01T03:49:00.883Z,99363.84
2022-10-01T03:51:31.429Z,99351.81
2022-10-01T03:53:58.676Z,99364.69
2022-10-01T03:56:25.584Z,99360.44
2022-10-01T03:58:52.230Z,99367.28
2022-10-01T04:01:18.900Z,99377.59
2022-10-01T04:03:45.604Z,99367.28
2022-10-01T04:06:12.530Z,99366.44
2022-10-01T04:08:39.245Z,99363.84
2022-10-01T04:11:06.896Z,99375.88
2022-10-01T04:13:34.694Z,99377.59
2022-10-01T04:16:02.820Z,99369.88
2022-10-01T04:18:29.622Z,99375.03
2022-10-01T04:20:56.254Z,99372.44
2022-10-01T04:23:22.812Z,99373.31
2022-10-01T04:25:49.767Z,99366.44
2022-10-01T04:28:16.925Z,99364.72
2022-10-01T04:30:45.347Z,99372.44
2022-10-01T04:33:17.133Z,99369.03
2022-10-01T04:35:44.317Z,99371.59
2022-10-01T04:38:16.800Z,99369.88
2022-10-01T04:40:43.438Z,99363.00
2022-10-01T04:43:11.761Z,99381.94
2022-10-01T04:45:39.120Z,99393.06
2022-10-01T04:48:06.163Z,99393.94
2022-10-01T04:50:33.403Z,99383.63
2022-10-01T04:53:00.021Z,99393.09
2022-10-01T04:55:26.728Z,99386.22
2022-10-01T04:57:53.251Z,99392.22
2022-10-01T05:00:24.406Z,99393.94
2022-10-01T05:02:51.502Z,99403.41
2022-10-01T05:05:20.373Z,99398.22
2022-10-01T05:07:47.783Z,99398.22
2022-10-01T05:10:17.783Z,99395.66
2022-10-01T05:12:45.577Z,99405.09
2022-10-01T05:15:12.926Z,99405.09
2022-10-01T05:17:39.742Z,99396.50
2022-10-01T05:20:08.085Z,99399.91
2022-10-01T05:22:34.684Z,99406.78
2022-10-01T05:25:01.219Z,99405.09
2022-10-01T05:27:27.973Z,99409.38
2022-10-01T05:29:54.767Z,99406.78
2022-10-01T05:32:21.297Z,99407.66
2022-10-01T05:34:52.629Z,99418.84
2022-10-01T05:37:20.094Z,99413.63
2022-10-01T05:39:46.757Z,99408.47
2022-10-01T05:42:13.319Z,99387.84
2022-10-01T05:44:45.944Z,99405.00
2022-10-01T05:47:14.037Z,99397.28
2022-10-01T05:49:42.902Z,99392.94
2022-10-01T05:52:13.673Z,99386.94
2022-10-01T05:54:40.479Z,99398.09
2022-10-01T05:57:08.213Z,99399.78
2022-10-01T05:59:35.382Z,99406.66
2022-10-01T06:02:02.720Z,99398.91
2022-10-01T06:04:29.333Z,99407.44
2022-10-01T06:06:56.416Z,99416.91
2022-10-01T06:09:23.190Z,99410.88
2022-10-01T06:11:49.836Z,99410.81
2022-10-01T06:14:17.031Z,99421.13
2022-10-01T06:16:43.766Z,99411.63
2022-10-01T06:19:10.411Z,99422.78
2022-10-01T06:21:37.393Z,99408.13
2022-10-01T06:24:04.583Z,99408.94
2022-10-01T06:26:31.269Z,99397.69
2022-10-01T06:28:57.920Z,99408.00
2022-10-01T06:31:25.127Z,99394.16
2022-10-01T06:33:54.502Z,99403.56
2022-10-01T06:36:21.198Z,99400.91
2022-10-01T06:38:49.294Z,99391.34
2022-10-01T06:41:16.019Z,99389.53
2022-10-01T06:43:42.627Z,99395.50
2022-10-01T06:46:09.245Z,99389.34
2022-10-01T06:48:36.720Z,99392.66
2022-10-01T06:51:04.064Z,99388.28
2022-10-01T06:53:31.886Z,99386.44
2022-10-01T06:56:04.677Z,99393.28
2022-10-01T06:58:31.297Z,99398.38
2022-10-01T07:01:03.035Z,99390.56
2022-10-01T07:03:31.180Z,99386.19
2022-10-01T07:06:03.559Z,99389.56
2022-10-01T07:08:30.254Z,99380.88
2022-10-01T07:11:02.695Z,99389.44
2022-10-01T07:13:29.969Z,99385.94
2022-10-01T07:15:56.609Z,99391.00
2022-10-01T07:18:23.656Z,99390.97
2022-10-01T07:20:50.181Z,99382.31
2022-10-01T07:23:16.794Z,99378.81
2022-10-01T07:25:44.130Z,99397.78
2022-10-01T07:28:20.458Z,99387.34
2022-10-01T07:30:58.124Z,99397.59
2022-10-01T07:33:24.691Z,99388.88
2022-10-01T07:35:51.406Z,99382.72
2022-10-01T07:38:18.102Z,99378.28
2022-10-01T07:40:44.745Z,99374.81
2022-10-01T07:43:14.591Z,99384.25
2022-10-01T07:45:41.254Z,99376.44
2022-10-01T07:48:08.110Z,99391.88
2022-10-01T07:50:34.641Z,99387.50
2022-10-01T07:53:01.228Z,99384.06
2022-10-01T07:55:30.560Z,99384.06
2022-10-01T07:58:01.499Z,99381.44
2022-10-01T08:00:30.263Z,99376.22
2022-10-01T08:02:57.248Z,99381.34
2022-10-01T08:05:27.125Z,99368.31
2022-10-01T08:07:54.103Z,99368.31
2022-10-01T08:10:23.198Z,99363.84
2022-10-01T08:12:49.847Z,99369.00
2022-10-01T08:15:17.622Z,99368.13
2022-10-01T08:17:44.945Z,99366.44
2022-10-01T08:20:13.739Z,99365.50
2022-10-01T08:22:42.268Z,99372.44
2022-10-01T08:25:09.654Z,99375.78
2022-10-01T08:27:36.600Z,99363.63
2022-10-01T08:30:04.002Z,99368.72
2022-10-01T08:32:31.227Z,99367.78
2022-10-01T08:34:59.949Z,99374.59
2022-10-01T08:37:27.788Z,99361.59
2022-10-01T08:39:55.775Z,99367.41
2022-10-01T08:42:31.832Z,99369.91
2022-10-01T08:45:04.178Z,99369.91
2022-10-01T08:47:35.559Z,99369.91
2022-10-01T08:50:31.923Z,99364.72
2022-10-01T08:53:04.511Z,99368.22
2022-10-01T08:55:36.585Z,99361.31
2022-10-01T08:58:06.394Z,99375.19
2022-10-01T09:00:41.807Z,99378.66
2022-10-01T09:03:13.110Z,99380.50
2022-10-01T09:06:00.522Z,99385.69
2022-10-01T09:08:59.621Z,99384.88
2022-10-01T09:11:29.449Z,99388.19
2022-10-01T09:14:31.436Z,99395.75
2022-10-01T09:17:03.437Z,99390.50
2022-10-01T09:19:47.748Z,99387.81
2022-10-01T09:22:26.024Z,99381.63
2022-10-01T09:24:59.655Z,99378.91
2022-10-01T09:27:28.165Z,99383.06
2022-10-01T09:30:10.818Z,99375.88
2022-10-01T09:32:44.660Z,99387.81
2022-10-01T09:35:41.834Z,99379.88
2022-10-01T09:38:17.274Z,99384.91
2022-10-01T09:40:57.314Z,99381.97
2022-10-01T09:43:28.143Z,99380.81
2022-10-01T09:45:54.869Z,99375.34
2022-10-01T09:49:03.418Z,99390.63
2022-10-01T09:51:42.685Z,99399.94
2022-10-01T09:54:33.977Z,99403.34
2022-10-01T09:57:14.014Z,99389.59
2022-10-01T09:59:47.638Z,99390.25
2022-10-01T10:02:24.473Z,99390.06
2022-10-01T10:05:08.364Z,99383.69
2022-10-01T10:07:35.255Z,99390.53
2022-10-01T10:10:28.639Z,99379.06
2022-10-01T10:12:58.986Z,99380.69
2022-10-01T10:15:26.472Z,99377.06
2022-10-01T10:17:55.768Z,99369.81
2022-10-01T10:20:33.031Z,99371.44
2022-10-01T10:23:14.091Z,99369.53
2022-10-01T10:25:40.696Z,99371.38
2022-10-01T10:28:20.762Z,99365.50
2022-10-01T10:30:48.365Z,99362.13
2022-10-01T10:33:15.107Z,99362.25
2022-10-01T10:35:41.694Z,99361.28
2022-10-01T10:38:18.231Z,99360.50
2022-10-01T10:40:45.969Z,99363.13
2022-10-01T10:43:22.844Z,99357.97
2022-10-01T10:45:56.398Z,99352.91
2022-10-01T10:48:32.344Z,99348.88
2022-10-01T10:51:04.773Z,99349.25
2022-10-01T10:53:44.027Z,99351.91
2022-10-01T10:56:22.769Z,99349.44
2022-10-01T10:58:53.817Z,99352.19
2022-10-01T11:01:29.586Z,99340.19
2022-10-01T11:04:01.075Z,99335.94
2022-10-01T11:06:28.135Z,99330.81
2022-10-01T11:09:01.597Z,99337.84
2022-10-01T11:11:38.490Z,99337.09
2022-10-01T11:14:23.901Z,99344.22
2022-10-01T11:17:15.659Z,99341.75
2022-10-01T11:19:45.252Z,99335.88
2022-10-01T11:22:26.710Z,99336.81
2022-10-01T11:24:56.185Z,99331.84
2022-10-01T11:27:45.738Z,99327.56
2022-10-01T11:30:23.034Z,99307.72
2022-10-01T11:33:27.431Z,99303.44
2022-10-01T11:36:09.687Z,99305.34
2022-10-01T11:38:48.389Z,99312.41
2022-10-01T11:41:23.928Z,99306.41
2022-10-01T11:43:54.348Z,99294.34
2022-10-01T11:46:55.174Z,99306.66
2022-10-01T11:49:55.950Z,99305.00
2022-10-01T11:52:43.885Z,99303.38
2022-10-01T11:55:45.273Z,99300.06
2022-10-01T11:58:50.991Z,99292.22
2022-10-01T12:01:23.829Z,99293.88
2022-10-01T12:03:53.378Z,99283.41
2022-10-01T12:06:34.064Z,99278.06
2022-10-01T12:09:21.298Z,99268.50
2022-10-01T12:11:59.421Z,99262.25
2022-10-01T12:14:50.704Z,99276.81
2022-10-01T12:17:17.918Z,99276.69
2022-10-01T12:19:50.413Z,99278.31
2022-10-01T12:22:31.186Z,99267.84
2022-10-01T12:24:57.728Z,99263.50
2022-10-01T12:27:53.499Z,99256.63
2022-10-01T12:30:29.222Z,99250.44
2022-10-01T12:33:01.654Z,99248.75
2022-10-01T12:35:59.248Z,99254.91
2022-10-01T12:38:38.025Z,99252.38
2022-10-01T12:41:19.370Z,99255.94
2022-10-01T12:44:23.325Z,99250.75
2022-10-01T12:47:14.166Z,99262.94
2022-10-01T12:50:09.760Z,99253.44
2022-10-01T12:53:14.398Z,99252.59
2022-10-01T12:56:00.621Z,99245.84
2022-10-01T12:58:54.882Z,99249.44
2022-10-01T13:01:41.195Z,99242.56
2022-10-01T13:04:31.143Z,99247.81
2022-10-01T13:07:03.654Z,99241.81
2022-10-01T13:10:15.142Z,99242.78
2022-10-01T13:13:21.537Z,99251.44
2022-10-01T13:15:54.287Z,99237.69
2022-10-01T13:18:29.637Z,99231.63
2022-10-01T13:21:08.068Z,99235.97
2022-10-01T13:24:05.397Z,99229.94
2022-10-01T13:26:40.079Z,99232.59
2022-10-01T13:29:15.586Z,99235.28
2022-10-01T13:31:57.001Z,99230.19
2022-10-01T13:34:46.109Z,99219.16
2022-10-01T13:37:35.522Z,99222.69
2022-10-01T13:40:03.966Z,99220.19
2022-10-01T13:42:36.288Z,99215.91
2022-10-01T13:45:06.832Z,99215.97
2022-10-01T13:47:40.946Z,99211.69
2022-10-01T13:50:23.771Z,99200.56
2022-10-01T13:53:05.740Z,99208.31
2022-10-01T13:55:32.748Z,99209.25
2022-10-01T13:58:07.381Z,99207.63
2022-10-01T14:00:34.020Z,99204.19
2022-10-01T14:03:33.889Z,99194.75
2022-10-01T14:06:03.995Z,99201.69
2022-10-01T14:08:47.575Z,99204.31
2022-10-01T14:11:44.423Z,99208.72
2022-10-01T14:14:40.591Z,99200.13
2022-10-01T14:17:09.902Z,99197.66
2022-10-01T14:19:37.380Z,99196.78
2022-10-01T14:22:21.019Z,99198.53
2022-10-01T14:25:15.367Z,99189.97
2022-10-01T14:28:03.519Z,99199.50
2022-10-01T14:30:57.516Z,99197.94
2022-10-01T14:33:35.979Z,99198.00
2022-10-01T14:36:22.562Z,99209.28
2022-10-01T14:38:49.154Z,99201.50
2022-10-01T14:41:20.596Z,99193.00
2022-10-01T14:43:47.157Z,99196.50
2022-10-01T14:46:18.686Z,99187.97
2022-10-01T14:48:55.893Z,99183.56
2022-10-01T14:51:25.797Z,99183.56
2022-10-01T14:53:55.118Z,99180.16
2022-10-01T14:56:22.846Z,99169.09
2022-10-01T14:58:57.295Z,99182.00
2022-10-01T15:01:25.464Z,99185.50
2022-10-01T15:03:53.668Z,99175.19
2022-10-01T15:06:23.591Z,99173.47
2022-10-01T15:08:54.992Z,99169.22
2022-10-01T15:11:27.348Z,99169.22
2022-10-01T15:13:57.226Z,99166.69
2022-10-01T15:16:27.339Z,99158.91
2022-10-01T15:18:58.726Z,99155.56
2022-10-01T15:21:32.607Z,99155.56
2022-10-01T15:23:59.593Z,99151.25
2022-10-01T15:26:27.679Z,99159.09
2022-10-01T15:29:05.443Z,99142.72
2022-10-01T15:31:33.769Z,99143.63
2022-10-01T15:34:02.672Z,99132.44
2022-10-01T15:36:29.478Z,99126.50
2022-10-01T15:38:57.044Z,99136.84
2022-10-01T15:41:33.465Z,99129.13
2022-10-01T15:44:06.485Z,99126.59
2022-10-01T15:46:35.330Z,99124.94
2022-10-01T15:49:20.772Z,99124.16
2022-10-01T15:52:09.816Z,99125.06
2022-10-01T15:54:37.787Z,99115.59
2022-10-01T15:57:06.177Z,99117.41
2022-10-01T15:59:34.562Z,99122.72
2022-10-01T16:02:07.513Z,99123.69
2022-10-01T16:04:34.695Z,99115.97
2022-10-01T16:07:01.377Z,99121.38
2022-10-01T16:09:28.695Z,99120.56
2022-10-01T16:12:02.275Z,99124.94
2022-10-01T16:14:30.766Z,99121.53
2022-10-01T16:17:19.633Z,99119.81
2022-10-01T16:19:52.286Z,99119.00
2022-10-01T16:22:27.787Z,99132.81
2022-10-01T16:24:57.700Z,99132.00
2022-10-01T16:27:30.372Z,99124.31
2022-10-01T16:30:20.798Z,99124.31
2022-10-01T16:32:48.165Z,99116.59
2022-10-01T16:35:24.833Z,99106.25
2022-10-01T16:37:54.088Z,99095.94
2022-10-01T16:40:24.508Z,99098.53
2022-10-01T16:42:52.075Z,99087.38
2022-10-01T16:45:24.737Z,99095.97
2022-10-01T16:47:52.726Z,99081.34
2022-10-01T16:50:24.022Z,99083.06
2022-10-01T16:52:55.577Z,99075.31
2022-10-01T16:55:24.754Z,99068.50
2022-10-01T16:57:54.601Z,99065.00
2022-10-01T17:00:23.986Z,99061.63
2022-10-01T17:02:50.841Z,99066.78
2022-10-01T17:05:26.881Z,99059.03
2022-10-01T17:07:54.707Z,99061.63
2022-10-01T17:10:23.476Z,99053.91
2022-10-01T17:12:50.445Z,99050.47
2022-10-01T17:15:23.225Z,99055.63
2022-10-01T17:17:49.802Z,99047.91
2022-10-01T17:20:16.814Z,99047.06
2022-10-01T17:22:43.587Z,99047.06
2022-10-01T17:25:32.332Z,99041.91
2022-10-01T17:28:01.150Z,99047.91
2022-10-01T17:30:29.285Z,99050.50
2022-10-01T17:32:57.167Z,99044.47
2022-10-01T17:35:23.908Z,99028.13
2022-10-01T17:37:50.497Z,99022.09
2022-10-01T17:40:17.222Z,99028.09
2022-10-01T17:42:43.792Z,99026.38
2022-10-01T17:45:12.233Z,99026.34
2022-10-01T17:47:46.297Z,99013.41
2022-10-01T17:50:13.938Z,99007.38
2022-10-01T17:52:40.729Z,99009.97
2022-10-01T17:55:09.596Z,98991.84
2022-10-01T17:57:36.145Z,98997.00
2022-10-01T18:00:03.707Z,98996.16
2022-10-01T18:02:47.063Z,99000.47
2022-10-01T18:05:15.124Z,98993.56
2022-10-01T18:07:42.765Z,98982.41
2022-10-01T18:10:12.849Z,98967.78
2022-10-01T18:12:40.155Z,98954.88
2022-10-01T18:15:07.367Z,98955.75
2022-10-01T18:20:23.176Z,98942.88
2022-10-01T18:22:50.788Z,98947.13
2022-10-01T18:25:19.498Z,98948.84
2022-10-01T18:27:52.691Z,98937.63
2022-10-01T18:30:20.237Z,98936.78
2022-10-01T18:32:56.750Z,98938.56
2022-10-01T18:35:44.056Z,98931.66
2022-10-01T18:38:21.631Z,98917.91
2022-10-01T18:40:56.969Z,98912.78
2022-10-01T18:43:26.058Z,98907.63
2022-10-01T18:46:23.559Z,98907.75
2022-10-01T18:49:16.453Z,98906.91
2022-10-01T18:52:12.005Z,98909.53
2022-10-01T18:55:10.294Z,98913.91
2022-10-01T18:57:53.966Z,98923.34
2022-10-01T19:00:23.383Z,98914.78
2022-10-01T19:02:59.773Z,98905.28
2022-10-01T19:05:46.019Z,98903.59
2022-10-01T19:08:31.144Z,98893.28
2022-10-01T19:11:15.739Z,98889.84
2022-10-01T19:14:12.367Z,98883.84
2022-10-01T19:17:07.160Z,98877.81
2022-10-01T19:19:52.658Z,98882.13
2022-10-01T19:23:00.952Z,98878.66
2022-10-01T19:25:36.719Z,98867.50
2022-10-01T19:28:21.549Z,98859.75
2022-10-01T19:31:01.953Z,98839.09
2022-10-01T19:33:32.447Z,98834.81
2022-10-01T19:36:00.437Z,98830.56
2022-10-01T19:38:35.383Z,98833.09
2022-10-01T19:41:14.993Z,98825.31
2022-10-01T19:43:44.450Z,98828.75
2022-10-01T19:46:20.548Z,98823.63
2022-10-01T19:48:57.102Z,98808.97
2022-10-01T19:51:30.391Z,98787.47
2022-10-01T19:54:01.593Z,98794.28
2022-10-01T19:56:34.514Z,98777.13
2022-10-01T19:59:19.878Z,98777.09
2022-10-01T20:02:01.389Z,98764.16
2022-10-01T20:04:45.638Z,98758.97
2022-10-01T20:07:19.618Z,98762.41
2022-10-01T20:09:56.318Z,98752.91
2022-10-01T20:12:45.835Z,98738.34
2022-10-01T20:15:21.815Z,98754.69
2022-10-01T20:18:14.358Z,98766.75
2022-10-01T20:21:19.236Z,98746.09
2022-10-01T20:24:04.553Z,98740.94
2022-10-01T20:26:40.807Z,98735.78
2022-10-01T20:29:38.088Z,98728.03
2022-10-01T20:32:27.362Z,98739.22
2022-10-01T20:35:24.239Z,98745.28
2022-10-01T20:37:57.690Z,98740.94
2022-10-01T20:40:49.441Z,98728.84
2022-10-01T20:43:49.395Z,98721.09
2022-10-01T20:46:34.983Z,98715.91
2022-10-01T20:49:05.441Z,98718.53
2022-10-01T20:51:42.931Z,98707.38
2022-10-01T20:54:12.307Z,98708.19
2022-10-01T20:56:47.053Z,98703.88
2022-10-01T20:59:19.361Z,98692.69
2022-10-01T21:01:56.244Z,98699.56
2022-10-01T21:04:28.991Z,98700.47
2022-10-01T21:07:02.178Z,98703.06
2022-10-01T21:09:34.873Z,98713.41
2022-10-01T21:12:12.531Z,98721.22
2022-10-01T21:14:55.939Z,98748.97
2022-10-01T21:18:09.655Z,98769.97
2022-10-01T21:20:50.863Z,98784.78
2022-10-01T21:23:48.192Z,98796.94
2022-10-01T21:26:35.639Z,98797.84
2022-10-01T21:29:34.047Z,98767.75
2022-10-01T21:32:45.406Z,98767.75
2022-10-01T21:35:43.085Z,98776.31
2022-10-01T21:38:11.399Z,98785.84
2022-10-01T21:40:38.006Z,98786.75
2022-10-01T21:43:10.379Z,98794.50
2022-10-01T21:45:45.435Z,98780.78
2022-10-01T21:48:24.002Z,98764.47
2022-10-01T21:51:01.435Z,98767.13
2022-10-01T21:53:48.526Z,98768.84
2022-10-01T21:56:42.633Z,98776.63
2022-10-01T21:59:27.494Z,98773.19
2022-10-01T22:01:54.343Z,98764.63
2022-10-01T22:04:32.771Z,98761.22
2022-10-01T22:07:13.514Z,98775.88
2022-10-01T22:10:12.726Z,98775.91
2022-10-01T22:12:42.807Z,98722.50
2022-10-01T22:15:23.722Z,98673.41
2022-10-01T22:17:53.749Z,98678.53
2022-10-01T22:20:24.371Z,98691.41
2022-10-01T22:22:56.673Z,98700.00
2022-10-01T22:25:25.054Z,98709.50
2022-10-01T22:28:06.213Z,98701.72
2022-10-01T22:30:36.787Z,98668.94
2022-10-01T22:33:17.933Z,98663.78
2022-10-01T22:35:55.966Z,98665.44
2022-10-01T22:38:38.919Z,98656.81
2022-10-01T22:41:11.105Z,98641.31
2022-10-01T22:43:40.468Z,98628.34
2022-10-01T22:46:22.150Z,98619.72
2022-10-01T22:48:57.769Z,98629.16
2022-10-01T22:51:33.996Z,98619.72
2022-10-01T22:54:24.975Z,98636.03
2022-10-01T22:57:03.444Z,98675.63
2022-10-01T22:59:49.381Z,98735.03
2022-10-01T23:02:22.450Z,98768.75
2022-10-01T23:05:11.230Z,98717.16
2022-10-01T23:07:58.308Z,98563.06
2022-10-01T23:10:43.614Z,98596.72
2022-10-01T23:13:28.691Z,98635.47
2022-10-01T23:16:16.608Z,98655.19
2022-10-01T23:19:11.206Z,98639.66
2022-10-01T23:21:50.407Z,98603.41
2022-10-01T23:24:35.548Z,98585.34
2022-10-01T23:27:13.530Z,98570.66
2022-10-01T23:29:53.744Z,98554.41
2022-10-01T23:32:52.180Z,98565.47
2022-10-01T23:35:28.667Z,98546.56
2022-10-01T23:38:13.098Z,98548.25
2022-10-01T23:40:42.090Z,98543.13
2022-10-01T23:43:22.548Z,98538.00
2022-10-01T23:46:02.387Z,98532.84
2022-10-01T23:48:46.606Z,98532.00
2022-10-01T23:51:21.911Z,98531.19
2022-10-01T23:54:04.812Z,98532.03
2022-10-01T23:56:49.847Z,98529.44
2022-10-01T23:59:21.485Z,98526.88
